createdAt,value
2024-01-10T00:00:29.209Z,182.90
2024-01-10T00:03:21.281Z,156.70
2024-01-10T00:05:53.966Z,190.00
2024-01-10T00:08:26.892Z,191.00
2024-01-10T00:10:59.338Z,204.10
2024-01-10T00:13:31.854Z,185.30
2024-01-10T00:16:04.204Z,230.00
2024-01-10T00:18:36.995Z,223.50
2024-01-10T00:21:09.375Z,225.60
2024-01-10T00:23:42.004Z,234.30
2024-01-10T00:26:14.485Z,207.50
2024-01-10T00:28:47.446Z,239.70
2024-01-10T00:31:20.115Z,241.90
2024-01-10T00:33:52.465Z,232.70
2024-01-10T00:36:24.780Z,237.90
2024-01-10T00:38:57.317Z,213.10
2024-01-10T00:41:29.601Z,242.40
2024-01-10T00:44:01.801Z,243.20
2024-01-10T00:46:34.130Z,226.80
2024-01-10T00:49:06.345Z,223.10
2024-01-10T00:51:38.628Z,244.00
2024-01-10T00:54:10.778Z,250.90
2024-01-10T00:56:42.965Z,244.10
2024-01-10T00:59:15.457Z,202.20
2024-01-10T01:01:47.893Z,222.60
2024-01-10T01:04:20.022Z,231.90
2024-01-10T01:06:52.214Z,209.30
2024-01-10T01:09:25.081Z,208.80
2024-01-10T01:11:57.432Z,193.80
2024-01-10T01:14:29.799Z,224.20
2024-01-10T01:17:02.223Z,194.40
2024-01-10T01:19:34.973Z,208.50
2024-01-10T01:22:08.176Z,212.70
2024-01-10T01:24:40.343Z,230.70
2024-01-10T01:27:12.722Z,215.60
2024-01-10T01:29:44.974Z,223.00
2024-01-10T01:32:17.416Z,194.60
2024-01-10T01:34:49.758Z,242.30
2024-01-10T01:37:21.974Z,275.10
2024-01-10T01:39:54.279Z,279.90
2024-01-10T01:42:26.585Z,246.70
2024-01-10T01:44:58.840Z,265.70
2024-01-10T01:47:31.258Z,248.30
2024-01-10T01:50:04.950Z,236.80
2024-01-10T01:52:38.095Z,226.80
2024-01-10T01:55:12.423Z,261.20
2024-01-10T01:57:45.100Z,208.00
2024-01-10T02:00:18.284Z,224.40
2024-01-10T02:02:52.826Z,219.60
2024-01-10T02:05:27.077Z,192.80
2024-01-10T02:07:59.309Z,195.50
2024-01-10T02:10:31.917Z,192.50
2024-01-10T02:13:04.826Z,187.50
2024-01-10T02:15:37.310Z,178.90
2024-01-10T02:18:11.742Z,179.60
2024-01-10T02:20:46.987Z,165.30
2024-01-10T02:23:19.322Z,178.80
2024-01-10T02:25:52.179Z,169.70
2024-01-10T02:28:24.685Z,180.40
2024-01-10T02:30:59.451Z,186.20
2024-01-10T02:33:31.921Z,188.00
2024-01-10T02:36:04.485Z,185.90
2024-01-10T02:38:36.911Z,185.50
2024-01-10T02:41:09.550Z,182.50
2024-01-10T02:43:41.844Z,178.40
2024-01-10T02:46:14.055Z,186.70
2024-01-10T02:48:46.265Z,179.50
2024-01-10T02:51:18.529Z,208.30
2024-01-10T02:53:50.714Z,178.30
2024-01-10T02:56:23.016Z,172.70
2024-01-10T02:58:55.318Z,174.70
2024-01-10T03:01:27.628Z,180.20
2024-01-10T03:03:59.889Z,170.60
2024-01-10T03:06:32.402Z,184.80
2024-01-10T03:09:04.596Z,178.50
2024-01-10T03:11:37.362Z,214.90
2024-01-10T03:14:12.351Z,219.40
2024-01-10T03:16:44.928Z,192.30
2024-01-10T03:19:17.120Z,213.30
2024-01-10T03:21:49.463Z,223.70
2024-01-10T03:24:25.236Z,196.90
2024-01-10T03:26:57.441Z,221.50
2024-01-10T03:29:29.560Z,227.20
2024-01-10T03:32:02.387Z,205.70
2024-01-10T03:34:34.738Z,205.90
2024-01-10T03:37:07.846Z,212.10
2024-01-10T03:39:40.021Z,239.80
2024-01-10T03:42:12.195Z,200.60
2024-01-10T03:44:44.842Z,203.30
2024-01-10T03:47:17.237Z,194.70
2024-01-10T03:49:49.459Z,238.20
2024-01-10T03:52:21.658Z,216.50
2024-01-10T03:54:53.784Z,205.60
2024-01-10T03:57:25.962Z,221.10
2024-01-10T03:59:58.059Z,229.10
2024-01-10T04:02:30.560Z,234.90
2024-01-10T04:05:02.904Z,253.40
2024-01-10T04:07:35.762Z,270.10
2024-01-10T04:10:11.506Z,263.50
2024-01-10T04:12:44.578Z,270.30
2024-01-10T04:15:18.663Z,312.00
2024-01-10T04:17:50.904Z,300.70
2024-01-10T04:20:23.466Z,300.40
2024-01-10T04:22:55.779Z,323.30
2024-01-10T04:25:28.021Z,291.00
2024-01-10T04:28:00.224Z,294.40
2024-01-10T04:30:32.805Z,333.70
2024-01-10T04:33:05.850Z,298.10
2024-01-10T04:35:38.194Z,314.20
2024-01-10T04:38:10.795Z,348.70
2024-01-10T04:40:43.611Z,327.70
2024-01-10T04:43:15.930Z,300.10
2024-01-10T04:45:48.693Z,314.60
2024-01-10T04:48:21.007Z,246.70
2024-01-10T04:50:53.925Z,263.00
2024-01-10T04:53:26.204Z,247.90
2024-01-10T04:55:58.839Z,256.90
2024-01-10T04:58:31.326Z,235.10
2024-01-10T05:01:03.695Z,282.80
2024-01-10T05:03:36.128Z,268.60
2024-01-10T05:06:09.154Z,298.20
2024-01-10T05:08:41.481Z,323.30
2024-01-10T05:11:14.219Z,308.20
2024-01-10T05:13:46.775Z,298.60
2024-01-10T05:16:19.577Z,321.60
2024-01-10T05:18:51.954Z,289.10
2024-01-10T05:21:24.812Z,290.30
2024-01-10T05:23:57.028Z,322.40
2024-01-10T05:26:29.263Z,313.60
2024-01-10T05:29:01.651Z,293.90
2024-01-10T05:31:33.856Z,293.50
2024-01-10T05:34:06.925Z,306.90
2024-01-10T05:36:39.205Z,290.20
2024-01-10T05:39:11.476Z,285.20
2024-01-10T05:44:17.409Z,262.70
2024-01-10T05:46:50.156Z,266.20
2024-01-10T05:49:23.344Z,266.60
2024-01-10T05:51:55.683Z,246.40
2024-01-10T05:54:28.573Z,299.30
2024-01-10T05:57:02.122Z,261.40
2024-01-10T05:59:34.655Z,263.50
2024-01-10T06:02:07.149Z,267.60
2024-01-10T06:04:39.517Z,250.70
2024-01-10T06:07:11.822Z,257.80
2024-01-10T06:09:44.848Z,288.10
2024-01-10T06:12:17.334Z,286.90
2024-01-10T06:14:49.690Z,319.50
2024-01-10T06:17:21.982Z,279.40
2024-01-10T06:19:54.682Z,306.20
2024-01-10T06:22:29.889Z,275.50
2024-01-10T06:25:03.483Z,275.90
2024-01-10T06:27:36.410Z,398.80
2024-01-10T06:30:11.443Z,415.30
2024-01-10T06:32:43.970Z,385.70
2024-01-10T06:35:16.720Z,366.50
2024-01-10T06:37:49.411Z,350.00
2024-01-10T06:40:23.015Z,322.50
2024-01-10T06:42:55.175Z,351.80
2024-01-10T06:45:28.346Z,380.20
2024-01-10T06:48:00.617Z,393.70
2024-01-10T06:50:33.062Z,409.20
2024-01-10T06:53:05.602Z,424.00
2024-01-10T06:55:38.018Z,442.80
2024-01-10T06:58:10.636Z,462.20
2024-01-10T07:00:43.052Z,425.90
2024-01-10T07:03:15.538Z,370.60
2024-01-10T07:05:48.101Z,425.00
2024-01-10T07:08:20.526Z,345.90
2024-01-10T07:10:52.878Z,377.20
2024-01-10T07:13:25.334Z,343.40
2024-01-10T07:15:57.794Z,346.80
2024-01-10T07:18:30.158Z,335.20
2024-01-10T07:21:02.534Z,325.90
2024-01-10T07:23:35.607Z,298.70
2024-01-10T07:26:08.104Z,310.40
2024-01-10T07:28:40.386Z,311.10
2024-01-10T07:31:15.202Z,335.90
2024-01-10T07:33:47.557Z,380.20
2024-01-10T07:36:20.806Z,326.40
2024-01-10T07:38:53.266Z,311.50
2024-01-10T07:41:26.149Z,316.80
2024-01-10T07:43:58.587Z,343.50
2024-01-10T07:46:30.883Z,369.90
2024-01-10T07:49:03.248Z,323.30
2024-01-10T07:51:36.065Z,364.40
2024-01-10T07:54:08.409Z,334.10
2024-01-10T07:56:41.080Z,346.30
2024-01-10T07:59:16.080Z,342.60
2024-01-10T08:01:59.690Z,323.40
2024-01-10T08:04:32.107Z,292.00
2024-01-10T08:07:04.506Z,308.60
2024-01-10T08:09:37.682Z,302.50
2024-01-10T08:12:10.314Z,285.60
2024-01-10T08:14:47.074Z,294.40
2024-01-10T08:17:21.091Z,292.40
2024-01-10T08:19:54.452Z,269.40
2024-01-10T08:22:28.668Z,237.70
2024-01-10T08:25:01.470Z,268.80
2024-01-10T08:27:34.511Z,263.70
2024-01-10T08:30:10.783Z,255.90
2024-01-10T08:32:43.150Z,279.00
2024-01-10T08:35:15.717Z,266.50
2024-01-10T08:37:48.551Z,253.10
2024-01-10T08:40:22.373Z,269.30
2024-01-10T08:42:54.661Z,243.10
2024-01-10T08:45:26.970Z,242.50
2024-01-10T08:47:59.345Z,246.20
2024-01-10T08:50:32.258Z,259.80
2024-01-10T08:53:06.531Z,273.20
2024-01-10T08:55:39.256Z,281.80
2024-01-10T08:58:11.861Z,271.20
2024-01-10T09:00:44.153Z,275.60
2024-01-10T09:03:16.470Z,269.70
2024-01-10T09:05:57.271Z,253.20
2024-01-10T09:08:37.842Z,254.30
2024-01-10T09:11:10.483Z,258.70
2024-01-10T09:13:42.828Z,258.70
2024-01-10T09:16:15.780Z,240.00
2024-01-10T09:18:49.898Z,252.20
2024-01-10T09:21:24.293Z,250.40
2024-01-10T09:23:57.232Z,242.70
2024-01-10T09:26:29.560Z,242.60
2024-01-10T09:29:02.154Z,252.70
2024-01-10T09:31:34.342Z,230.70
2024-01-10T09:34:06.716Z,238.30
2024-01-10T09:36:39.039Z,244.20
2024-01-10T09:39:14.683Z,225.00
2024-01-10T09:41:52.065Z,223.20
2024-01-10T09:44:24.870Z,229.70
2024-01-10T09:46:58.217Z,249.40
2024-01-10T09:49:31.080Z,235.30
2024-01-10T09:52:12.354Z,221.10
2024-01-10T09:54:47.793Z,226.70
2024-01-10T09:57:22.066Z,232.80
2024-01-10T09:59:56.226Z,210.30
2024-01-10T10:02:28.805Z,210.90
2024-01-10T10:05:11.429Z,203.40
2024-01-10T10:07:51.500Z,201.60
2024-01-10T10:10:24.004Z,186.80
2024-01-10T10:12:56.412Z,189.00
2024-01-10T10:15:28.917Z,172.00
2024-01-10T10:18:01.300Z,175.70
2024-01-10T10:20:36.677Z,159.90
2024-01-10T10:23:11.720Z,166.40
2024-01-10T10:25:48.475Z,167.10
2024-01-10T10:28:25.605Z,160.60
2024-01-10T10:31:05.433Z,166.80
2024-01-10T10:33:38.395Z,163.40
2024-01-10T10:36:11.608Z,160.90
2024-01-10T10:38:44.124Z,158.80
2024-01-10T10:41:17.430Z,159.40
2024-01-10T10:43:52.326Z,155.20
2024-01-10T10:46:29.090Z,156.10
2024-01-10T10:49:07.462Z,158.10
2024-01-10T10:51:40.543Z,149.20
2024-01-10T10:54:14.088Z,156.60
2024-01-10T10:56:47.418Z,152.00
2024-01-10T10:59:21.659Z,152.10
2024-01-10T11:02:01.204Z,134.80
2024-01-10T11:04:34.090Z,143.60
2024-01-10T11:07:07.009Z,135.30
2024-01-10T11:09:40.095Z,137.90
2024-01-10T11:12:28.880Z,119.90
2024-01-10T11:15:31.395Z,100.50
2024-01-10T11:18:31.694Z,100.80
2024-01-10T11:21:21.314Z,106.60
2024-01-10T11:23:56.804Z,107.90
2024-01-10T11:26:29.290Z,106.30
2024-01-10T11:29:02.093Z,105.90
2024-01-10T11:31:35.178Z,118.80
2024-01-10T11:34:08.160Z,136.60
2024-01-10T11:36:40.471Z,133.50
2024-01-10T11:39:14.897Z,146.00
2024-01-10T11:41:50.749Z,139.40
2024-01-10T11:44:32.758Z,148.10
2024-01-10T11:47:07.679Z,172.90
2024-01-10T11:49:39.809Z,164.10
2024-01-10T11:52:13.109Z,173.50
2024-01-10T11:54:47.968Z,177.40
2024-01-10T11:57:24.346Z,179.80
2024-01-10T11:59:57.591Z,180.60
2024-01-10T12:02:32.036Z,192.00
2024-01-10T12:05:05.442Z,187.60
2024-01-10T12:07:38.277Z,188.70
2024-01-10T12:10:12.388Z,184.10
2024-01-10T12:12:44.525Z,193.40
2024-01-10T12:15:17.615Z,185.60
2024-01-10T12:17:49.810Z,175.30
2024-01-10T12:20:22.201Z,181.40
2024-01-10T12:22:54.359Z,180.90
2024-01-10T12:25:26.879Z,177.30
2024-01-10T12:28:03.506Z,243.70
2024-01-10T12:30:36.264Z,158.50
2024-01-10T12:33:10.975Z,144.00
2024-01-10T12:35:44.208Z,120.90
2024-01-10T12:38:16.796Z,123.50
2024-01-10T12:40:49.216Z,118.20
2024-01-10T12:43:22.657Z,105.50
2024-01-10T12:46:08.175Z,119.60
2024-01-10T12:48:42.554Z,110.20
2024-01-10T12:51:15.494Z,110.10
2024-01-10T12:53:47.854Z,114.80
2024-01-10T12:56:19.700Z,116.40
2024-01-10T12:58:52.001Z,125.50
2024-01-10T13:01:24.745Z,118.50
2024-01-10T13:03:57.322Z,129.20
2024-01-10T13:06:29.680Z,128.40
2024-01-10T13:09:02.169Z,132.00
2024-01-10T13:11:34.960Z,121.80
2024-01-10T13:14:07.139Z,126.50
2024-01-10T13:16:46.312Z,135.90
2024-01-10T13:19:27.446Z,134.10
2024-01-10T13:22:00.094Z,147.90
2024-01-10T13:24:32.370Z,138.30
2024-01-10T13:27:05.120Z,148.90
2024-01-10T13:29:38.157Z,139.40
2024-01-10T13:32:11.927Z,143.20
2024-01-10T13:34:45.626Z,136.80
2024-01-10T13:37:18.135Z,139.50
2024-01-10T13:39:50.310Z,138.50
2024-01-10T13:42:22.702Z,141.60
2024-01-10T13:44:55.047Z,135.70
2024-01-10T13:47:27.494Z,150.90
2024-01-10T13:49:59.837Z,139.00
2024-01-10T13:52:32.151Z,148.80
2024-01-10T13:55:05.985Z,145.30
2024-01-10T13:57:38.102Z,158.70
2024-01-10T14:00:15.864Z,142.90
2024-01-10T14:02:48.347Z,156.70
2024-01-10T14:05:20.698Z,154.40
2024-01-10T14:07:53.144Z,163.70
2024-01-10T14:10:26.057Z,172.40
2024-01-10T14:12:58.256Z,159.50
2024-01-10T14:15:30.736Z,160.60
2024-01-10T14:18:03.278Z,140.40
2024-01-10T14:20:37.585Z,144.30
2024-01-10T14:23:11.037Z,159.60
2024-01-10T14:25:43.818Z,156.00
2024-01-10T14:28:16.313Z,145.70
2024-01-10T14:30:49.394Z,148.90
2024-01-10T14:33:21.760Z,146.70
2024-01-10T14:35:54.113Z,151.60
2024-01-10T14:38:26.535Z,163.80
2024-01-10T14:40:59.715Z,167.10
2024-01-10T14:43:32.091Z,171.40
2024-01-10T14:46:04.542Z,171.30
2024-01-10T14:48:37.933Z,154.90
2024-01-10T14:51:10.236Z,174.90
2024-01-10T14:53:42.668Z,167.00
2024-01-10T14:56:15.420Z,157.60
2024-01-10T14:58:47.945Z,146.00
2024-01-10T15:01:21.513Z,144.20
2024-01-10T15:03:54.432Z,166.00
2024-01-10T15:06:27.013Z,152.40
2024-01-10T15:09:00.823Z,147.50
2024-01-10T15:11:34.141Z,136.30
2024-01-10T15:14:06.421Z,155.70
2024-01-10T15:16:38.712Z,148.70
2024-01-10T15:19:10.988Z,159.40
2024-01-10T15:21:43.334Z,151.80
2024-01-10T15:24:17.388Z,152.70
2024-01-10T15:26:51.877Z,160.70
2024-01-10T15:29:24.141Z,169.50
2024-01-10T15:31:56.438Z,148.40
2024-01-10T15:34:28.740Z,158.70
2024-01-10T15:37:01.116Z,166.70
2024-01-10T15:39:33.330Z,165.60
2024-01-10T15:42:05.906Z,156.60
2024-01-10T15:44:42.299Z,165.40
2024-01-10T15:47:14.457Z,161.30
2024-01-10T15:49:47.787Z,154.20
2024-01-10T15:52:27.010Z,158.00
2024-01-10T15:54:59.394Z,174.50
2024-01-10T15:57:31.571Z,174.10
2024-01-10T16:00:05.000Z,157.40
2024-01-10T16:02:37.345Z,168.50
2024-01-10T16:05:10.585Z,173.40
2024-01-10T16:07:42.781Z,154.20
2024-01-10T16:10:15.103Z,159.40
2024-01-10T16:12:47.344Z,158.70
2024-01-10T16:15:20.285Z,173.10
2024-01-10T16:17:52.805Z,178.90
2024-01-10T16:20:25.122Z,183.50
2024-01-10T16:22:57.613Z,182.80
2024-01-10T16:25:29.893Z,177.00
2024-01-10T16:28:02.438Z,192.80
2024-01-10T16:30:35.256Z,181.00
2024-01-10T16:33:07.806Z,182.60
2024-01-10T16:35:40.010Z,176.20
2024-01-10T16:38:12.610Z,187.30
2024-01-10T16:40:44.997Z,190.80
2024-01-10T16:43:17.384Z,193.30
2024-01-10T16:45:49.701Z,196.20
2024-01-10T16:48:22.029Z,186.30
2024-01-10T16:50:56.148Z,204.20
2024-01-10T16:53:28.659Z,200.50
2024-01-10T16:56:01.084Z,209.00
2024-01-10T16:58:33.764Z,206.20
2024-01-10T17:01:06.460Z,227.40
2024-01-10T17:03:38.879Z,232.90
2024-01-10T17:06:11.678Z,240.20
2024-01-10T17:08:43.953Z,255.40
2024-01-10T17:11:17.689Z,237.30
2024-01-10T17:13:50.403Z,249.70
2024-01-10T17:16:22.978Z,261.40
2024-01-10T17:18:55.456Z,287.50
2024-01-10T17:21:27.635Z,293.80
2024-01-10T17:23:59.810Z,295.20
2024-01-10T17:26:32.198Z,280.50
2024-01-10T17:29:06.126Z,316.20
2024-01-10T17:31:39.361Z,301.60
2024-01-10T17:34:11.639Z,314.90
2024-01-10T17:36:43.885Z,360.90
2024-01-10T17:39:16.266Z,338.70
2024-01-10T17:41:48.547Z,329.80
2024-01-10T17:44:21.806Z,326.60
2024-01-10T17:46:54.028Z,303.30
2024-01-10T17:49:26.253Z,279.40
2024-01-10T17:51:58.533Z,327.50
2024-01-10T17:54:30.691Z,326.30
2024-01-10T17:57:03.090Z,310.30
2024-01-10T17:59:35.493Z,334.40
2024-01-10T18:02:08.011Z,328.20
2024-01-10T18:04:42.372Z,333.80
2024-01-10T18:07:14.640Z,330.00
2024-01-10T18:09:46.791Z,328.30
2024-01-10T18:12:18.995Z,335.10
2024-01-10T18:14:52.144Z,335.60
2024-01-10T18:17:24.506Z,328.80
2024-01-10T18:19:58.213Z,328.30
2024-01-10T18:22:30.592Z,308.10
2024-01-10T18:25:02.829Z,318.50
2024-01-10T18:27:35.650Z,337.60
2024-01-10T18:30:09.746Z,309.70
2024-01-10T18:32:42.180Z,322.60
2024-01-10T18:35:14.749Z,338.00
2024-01-10T18:37:47.141Z,317.80
2024-01-10T18:40:19.487Z,326.20
2024-01-10T18:42:51.636Z,321.40
2024-01-10T18:45:24.052Z,287.80
2024-01-10T18:47:56.634Z,318.70
2024-01-10T18:50:28.822Z,323.50
2024-01-10T18:53:01.217Z,304.00
2024-01-10T18:55:33.560Z,303.40
2024-01-10T18:58:06.586Z,322.20
2024-01-10T19:00:38.845Z,300.30
2024-01-10T19:03:11.189Z,315.70
2024-01-10T19:05:44.768Z,334.00
2024-01-10T19:08:17.367Z,317.80
2024-01-10T19:10:49.580Z,337.10
2024-01-10T19:13:22.267Z,337.40
2024-01-10T19:15:54.840Z,312.40
2024-01-10T19:18:27.143Z,321.10
2024-01-10T19:20:59.388Z,302.20
2024-01-10T19:23:32.835Z,291.60
2024-01-10T19:26:06.272Z,298.60
2024-01-10T19:28:38.550Z,290.80
2024-01-10T19:31:10.962Z,305.80
2024-01-10T19:33:43.344Z,292.70
2024-01-10T19:36:15.785Z,311.10
2024-01-10T19:38:51.543Z,282.30
2024-01-10T19:41:25.209Z,292.80
2024-01-10T19:43:57.593Z,295.90
2024-01-10T19:46:29.893Z,295.60
2024-01-10T19:49:02.188Z,338.70
2024-01-10T19:51:34.627Z,332.10
2024-01-10T19:54:07.522Z,341.90
2024-01-10T19:56:40.478Z,326.80
2024-01-10T19:59:13.068Z,352.70
2024-01-10T20:01:45.325Z,324.30
2024-01-10T20:04:17.911Z,361.10
2024-01-10T20:06:50.259Z,372.40
2024-01-10T20:09:22.563Z,374.10
2024-01-10T20:11:54.697Z,414.10
2024-01-10T20:14:30.876Z,385.40
2024-01-10T20:17:08.965Z,366.80
2024-01-10T20:19:41.641Z,375.90
2024-01-10T20:22:13.921Z,361.60
2024-01-10T20:24:46.126Z,365.60
2024-01-10T20:27:18.467Z,374.40
2024-01-10T20:29:50.760Z,380.00
2024-01-10T20:32:23.122Z,382.60
2024-01-10T20:34:56.525Z,389.40
2024-01-10T20:37:29.005Z,375.50
2024-01-10T20:40:01.285Z,388.40
2024-01-10T20:42:33.650Z,388.90
2024-01-10T20:45:06.495Z,366.10
2024-01-10T20:47:43.878Z,370.70
2024-01-10T20:50:16.639Z,399.00
2024-01-10T20:52:48.911Z,371.40
2024-01-10T20:55:21.299Z,380.50
2024-01-10T20:57:55.098Z,381.80
2024-01-10T21:00:27.637Z,366.80
2024-01-10T21:03:00.102Z,361.50
2024-01-10T21:05:32.861Z,355.50
2024-01-10T21:08:05.928Z,374.80
2024-01-10T21:10:38.088Z,359.80
2024-01-10T21:13:10.211Z,365.10
2024-01-10T21:15:42.464Z,366.10
2024-01-10T21:18:15.155Z,355.30
2024-01-10T21:20:47.792Z,353.80
2024-01-10T21:23:20.807Z,379.30
2024-01-10T21:25:53.684Z,361.70
2024-01-10T21:28:26.542Z,362.70
2024-01-10T21:30:59.393Z,349.10
2024-01-10T21:33:31.709Z,353.60
2024-01-10T21:36:04.854Z,351.10
2024-01-10T21:38:38.243Z,360.60
2024-01-10T21:41:11.407Z,341.80
2024-01-10T21:43:44.067Z,349.50
2024-01-10T21:46:16.767Z,360.30
2024-01-10T21:48:48.991Z,379.30
2024-01-10T21:51:21.579Z,385.20
2024-01-10T21:53:53.679Z,379.10
2024-01-10T21:56:26.038Z,353.40
2024-01-10T21:58:58.901Z,376.70
2024-01-10T22:01:31.895Z,383.30
2024-01-10T22:04:05.173Z,363.70
2024-01-10T22:06:38.063Z,371.90
2024-01-10T22:09:10.959Z,367.80
2024-01-10T22:11:43.719Z,368.10
2024-01-10T22:14:16.662Z,375.90
2024-01-10T22:16:48.978Z,359.20
2024-01-10T22:19:21.196Z,374.70
2024-01-10T22:21:54.230Z,397.10
2024-01-10T22:24:27.240Z,381.00
2024-01-10T22:27:01.316Z,356.00
2024-01-10T22:29:35.221Z,402.10
2024-01-10T22:32:08.702Z,388.50
2024-01-10T22:34:41.242Z,396.50
2024-01-10T22:37:13.573Z,411.90
2024-01-10T22:39:45.848Z,384.10
2024-01-10T22:42:18.575Z,397.20
2024-01-10T22:44:50.984Z,356.30
2024-01-10T22:47:23.233Z,372.00
2024-01-10T22:49:55.478Z,385.00
2024-01-10T22:52:28.331Z,384.70
2024-01-10T22:55:00.490Z,379.60
2024-01-10T22:57:33.170Z,380.90
2024-01-10T23:00:09.741Z,378.30
2024-01-10T23:02:42.198Z,374.90
2024-01-10T23:05:15.064Z,356.90
2024-01-10T23:07:47.329Z,337.40
2024-01-10T23:10:19.745Z,356.50
2024-01-10T23:12:52.514Z,352.10
2024-01-10T23:15:25.127Z,346.20
2024-01-10T23:17:57.639Z,339.60
2024-01-10T23:20:29.951Z,368.80
2024-01-10T23:23:02.435Z,340.10
2024-01-10T23:25:34.650Z,349.40
2024-01-10T23:28:07.787Z,351.40
2024-01-10T23:30:40.058Z,345.90
2024-01-10T23:33:12.410Z,334.30
2024-01-10T23:35:48.754Z,350.80
2024-01-10T23:38:22.536Z,355.10
2024-01-10T23:40:54.934Z,338.40
2024-01-10T23:43:28.017Z,376.60
2024-01-10T23:46:00.713Z,364.80
2024-01-10T23:48:33.120Z,340.00
2024-01-10T23:51:05.588Z,331.90
2024-01-10T23:53:37.778Z,341.40
2024-01-10T23:56:10.295Z,352.90
2024-01-10T23:58:42.818Z,357.20
